createdAt,value
2023-05-18T00:04:08.145Z,7.01
2023-05-18T00:09:11.041Z,6.93
2023-05-18T00:14:13.835Z,6.86
2023-05-18T00:19:18.333Z,6.92
2023-05-18T00:24:21.239Z,6.95
2023-05-18T00:29:24.066Z,6.84
2023-05-18T00:34:28.283Z,6.72
2023-05-18T00:39:31.116Z,6.69
2023-05-18T00:44:33.916Z,6.69
2023-05-18T00:49:38.134Z,6.67
2023-05-18T00:54:41.126Z,6.64
2023-05-18T00:59:43.981Z,6.58
2023-05-18T01:04:48.168Z,6.53
2023-05-18T01:09:50.985Z,6.53
2023-05-18T01:15:01.944Z,6.44
2023-05-18T01:20:27.636Z,6.40
2023-05-18T01:25:40.919Z,6.31
2023-05-18T01:30:46.168Z,6.28
2023-05-18T01:35:49.084Z,6.29
2023-05-18T01:41:01.025Z,6.32
2023-05-18T01:46:14.758Z,6.22
2023-05-18T01:51:22.422Z,6.14
2023-05-18T01:56:26.771Z,6.02
2023-05-18T02:01:31.490Z,6.04
2023-05-18T02:06:34.378Z,5.97
2023-05-18T02:11:37.230Z,5.88
2023-05-18T02:16:41.642Z,5.78
2023-05-18T02:21:44.721Z,5.61
2023-05-18T02:26:47.529Z,5.69
2023-05-18T02:31:51.789Z,5.67
2023-05-18T02:36:57.928Z,5.77
2023-05-18T02:42:01.655Z,5.66
2023-05-18T02:47:06.384Z,5.47
2023-05-18T02:52:09.950Z,5.42
2023-05-18T02:57:13.883Z,5.40
2023-05-18T03:02:25.545Z,5.38
2023-05-18T03:07:28.538Z,5.36
2023-05-18T03:12:32.491Z,5.26
2023-05-18T03:17:36.952Z,5.02
2023-05-18T03:22:40.116Z,4.78
2023-05-18T03:27:43.200Z,4.86
2023-05-18T03:32:48.439Z,4.76
2023-05-18T03:37:52.261Z,4.74
2023-05-18T03:42:55.103Z,4.75
2023-05-18T03:47:59.465Z,4.71
2023-05-18T03:53:02.350Z,4.72
2023-05-18T03:58:05.236Z,4.80
2023-05-18T04:03:12.806Z,4.93
2023-05-18T04:08:15.738Z,5.00
2023-05-18T04:13:18.763Z,4.77
2023-05-18T04:18:22.947Z,4.80
2023-05-18T04:23:25.854Z,4.91
2023-05-18T04:28:29.246Z,5.08
2023-05-18T04:33:34.174Z,4.91
2023-05-18T04:38:37.226Z,4.77
2023-05-18T04:43:41.701Z,4.77
2023-05-18T04:48:49.942Z,4.60
2023-05-18T04:53:53.183Z,4.87
2023-05-18T04:58:59.331Z,4.59
2023-05-18T05:04:06.974Z,4.81
2023-05-18T05:09:09.973Z,5.10
2023-05-18T05:14:14.543Z,5.14
2023-05-18T05:19:18.879Z,5.19
2023-05-18T05:24:21.835Z,5.45
2023-05-18T05:29:26.397Z,5.84
2023-05-18T05:34:31.185Z,6.32
2023-05-18T05:39:35.328Z,6.69
2023-05-18T05:44:39.398Z,6.81
2023-05-18T05:49:43.848Z,7.42
2023-05-18T05:54:46.991Z,7.89
2023-05-18T05:59:50.843Z,8.41
2023-05-18T06:04:55.318Z,8.70
2023-05-18T06:09:58.515Z,8.77
2023-05-18T06:15:01.473Z,9.04
2023-05-18T06:20:07.189Z,9.29
2023-05-18T06:25:11.710Z,9.42
2023-05-18T06:30:26.015Z,9.47
2023-05-18T06:35:41.207Z,9.68
2023-05-18T06:40:44.475Z,9.74
2023-05-18T06:45:47.671Z,9.76
2023-05-18T06:51:10.737Z,9.77
2023-05-18T06:56:13.893Z,9.88
2023-05-18T07:01:19.423Z,9.97
2023-05-18T07:06:23.727Z,10.22
2023-05-18T07:11:29.532Z,10.47
2023-05-18T07:16:32.833Z,10.77
2023-05-18T07:21:38.032Z,10.96
2023-05-18T07:26:40.953Z,11.32
2023-05-18T07:31:44.857Z,12.13
2023-05-18T07:36:49.101Z,13.11
2023-05-18T07:41:52.198Z,13.71
2023-05-18T07:46:55.231Z,13.83
2023-05-18T07:52:00.465Z,13.81
2023-05-18T07:57:04.227Z,14.00
2023-05-18T08:02:07.659Z,13.80
2023-05-18T08:07:12.647Z,13.26
2023-05-18T08:12:15.498Z,13.96
2023-05-18T08:17:19.597Z,14.46
2023-05-18T08:22:24.090Z,15.39
2023-05-18T08:27:27.008Z,14.76
2023-05-18T08:32:29.890Z,15.07
2023-05-18T08:37:34.159Z,15.34
2023-05-18T08:42:49.492Z,15.56
2023-05-18T08:47:57.424Z,15.29
2023-05-18T08:53:05.889Z,15.29
2023-05-18T08:58:10.280Z,15.26
2023-05-18T09:03:14.271Z,15.56
2023-05-18T09:08:19.978Z,15.97
2023-05-18T09:13:23.184Z,16.30
2023-05-18T09:18:28.145Z,16.64
2023-05-18T09:23:34.038Z,16.76
2023-05-18T09:28:38.553Z,17.03
2023-05-18T09:33:41.850Z,16.92
2023-05-18T09:38:47.256Z,17.26
2023-05-18T09:43:50.805Z,17.41
2023-05-18T09:48:55.209Z,18.00
2023-05-18T09:54:00.184Z,16.44
2023-05-18T09:59:10.914Z,16.92
2023-05-18T10:04:13.826Z,17.44
2023-05-18T10:09:18.477Z,17.68
2023-05-18T10:14:25.455Z,18.48
2023-05-18T10:19:29.425Z,18.88
2023-05-18T10:24:37.588Z,19.40
2023-05-18T10:29:41.110Z,19.52
2023-05-18T10:34:45.324Z,18.14
2023-05-18T10:39:52.071Z,17.04
2023-05-18T10:44:55.764Z,18.03
2023-05-18T10:50:00.487Z,19.10
2023-05-18T10:55:05.155Z,20.02
2023-05-18T11:00:10.479Z,18.63
2023-05-18T11:05:13.961Z,19.57
2023-05-18T11:10:18.235Z,20.07
2023-05-18T11:15:21.117Z,20.43
2023-05-18T11:20:26.863Z,20.62
2023-05-18T11:25:43.343Z,19.72
2023-05-18T11:30:51.300Z,20.63
2023-05-18T11:36:13.636Z,21.27
2023-05-18T11:41:32.249Z,20.66
2023-05-18T11:46:35.242Z,21.18
2023-05-18T11:51:58.583Z,20.05
2023-05-18T11:57:03.534Z,20.48
2023-05-18T12:02:07.150Z,21.91
2023-05-18T12:07:10.769Z,20.75
2023-05-18T12:12:19.896Z,21.32
2023-05-18T12:17:24.379Z,22.40
2023-05-18T12:22:28.142Z,22.09
2023-05-18T12:27:32.498Z,21.49
2023-05-18T12:32:35.951Z,21.88
2023-05-18T12:37:45.045Z,21.89
2023-05-18T12:42:59.456Z,22.54
2023-05-18T12:48:06.151Z,22.56
2023-05-18T12:53:09.170Z,23.05
2023-05-18T12:58:16.549Z,22.97
2023-05-18T13:03:22.029Z,23.07
2023-05-18T13:08:25.569Z,23.11
2023-05-18T13:13:29.839Z,22.61
2023-05-18T13:18:32.743Z,21.72
2023-05-18T13:23:35.603Z,22.59
2023-05-18T13:28:39.988Z,23.29
2023-05-18T13:33:42.847Z,21.24
2023-05-18T13:38:45.734Z,20.14
2023-05-18T13:43:49.928Z,20.98
2023-05-18T13:48:52.803Z,22.20
2023-05-18T13:53:55.702Z,23.06
2023-05-18T13:58:59.905Z,22.40
2023-05-18T14:04:02.785Z,22.94
2023-05-18T14:09:05.621Z,22.92
2023-05-18T14:14:09.831Z,22.52
2023-05-18T14:19:12.868Z,22.27
2023-05-18T14:24:15.738Z,22.64
2023-05-18T14:29:20.220Z,22.70
2023-05-18T14:34:23.154Z,23.18
2023-05-18T14:39:26.049Z,22.86
2023-05-18T14:44:30.232Z,22.64
2023-05-18T14:49:33.097Z,23.19
2023-05-18T14:54:36.610Z,23.07
2023-05-18T14:59:40.782Z,23.17
2023-05-18T15:04:43.660Z,23.24
2023-05-18T15:09:46.521Z,22.56
2023-05-18T15:14:50.680Z,23.02
2023-05-18T15:19:53.461Z,22.67
2023-05-18T15:24:56.284Z,22.74
2023-05-18T15:30:01.219Z,22.31
2023-05-18T15:35:04.351Z,22.60
2023-05-18T15:40:08.408Z,22.88
2023-05-18T15:45:13.490Z,22.25
2023-05-18T15:50:16.278Z,22.21
2023-05-18T15:55:19.169Z,22.85
2023-05-18T16:00:23.839Z,22.72
2023-05-18T16:05:26.657Z,22.07
2023-05-18T16:10:29.894Z,22.17
2023-05-18T16:15:37.539Z,22.24
2023-05-18T16:20:40.498Z,21.47
2023-05-18T16:25:43.380Z,22.17
2023-05-18T16:30:47.664Z,22.75
2023-05-18T16:35:50.582Z,22.48
2023-05-18T16:40:53.385Z,22.32
2023-05-18T16:45:57.744Z,23.92
2023-05-18T16:51:00.871Z,27.07
2023-05-18T16:56:04.979Z,29.01
2023-05-18T17:01:19.392Z,30.20
2023-05-18T17:06:30.052Z,31.14
2023-05-18T17:11:32.863Z,31.28
2023-05-18T17:16:40.950Z,30.97
2023-05-18T17:21:43.781Z,31.41
2023-05-18T17:26:46.718Z,31.73
2023-05-18T17:31:51.012Z,30.25
2023-05-18T17:36:54.988Z,30.24
2023-05-18T17:42:00.047Z,28.92
2023-05-18T17:47:04.781Z,24.17
2023-05-18T17:52:08.146Z,23.11
2023-05-18T17:57:10.968Z,20.43
2023-05-18T18:02:15.419Z,18.34
2023-05-18T18:07:18.292Z,17.50
2023-05-18T18:12:21.142Z,17.07
2023-05-18T18:17:25.825Z,16.42
2023-05-18T18:22:28.713Z,15.91
2023-05-18T18:27:31.552Z,15.74
2023-05-18T18:32:35.914Z,15.66
2023-05-18T18:37:38.754Z,15.60
2023-05-18T18:42:41.666Z,15.47
2023-05-18T18:47:45.901Z,15.23
2023-05-18T18:52:49.044Z,15.05
2023-05-18T18:57:52.952Z,14.89
2023-05-18T19:02:57.273Z,14.76
2023-05-18T19:08:01.683Z,14.69
2023-05-18T19:13:06.179Z,14.53
2023-05-18T19:18:10.507Z,14.37
2023-05-18T19:23:13.336Z,14.16
2023-05-18T19:28:16.325Z,14.03
2023-05-18T19:33:20.600Z,13.90
2023-05-18T19:38:23.497Z,13.81
2023-05-18T19:43:26.295Z,13.71
2023-05-18T19:48:31.368Z,13.67
2023-05-18T19:53:34.456Z,13.60
2023-05-18T19:58:37.282Z,13.55
2023-05-18T20:03:43.521Z,13.46
2023-05-18T20:08:46.716Z,13.37
2023-05-18T20:13:49.735Z,13.20
2023-05-18T20:18:53.984Z,13.00
2023-05-18T20:23:56.824Z,12.89
2023-05-18T20:28:59.968Z,12.74
2023-05-18T20:34:04.195Z,12.57
2023-05-18T20:39:07.347Z,12.42
2023-05-18T20:44:11.130Z,12.35
2023-05-18T20:49:15.481Z,12.33
2023-05-18T20:54:18.906Z,12.15
2023-05-18T20:59:21.909Z,12.21
2023-05-18T21:04:26.153Z,12.16
2023-05-18T21:09:31.230Z,12.19
2023-05-18T21:14:34.133Z,12.12
2023-05-18T21:19:38.362Z,12.06
2023-05-18T21:24:41.212Z,11.99
2023-05-18T21:29:44.553Z,11.88
2023-05-18T21:34:48.827Z,11.81
2023-05-18T21:39:51.710Z,11.77
2023-05-18T21:44:54.832Z,11.73
2023-05-18T21:49:59.031Z,11.75
2023-05-18T21:55:01.930Z,11.68
2023-05-18T22:00:06.362Z,11.55
2023-05-18T22:05:16.942Z,11.50
2023-05-18T22:10:20.121Z,11.47
2023-05-18T22:15:24.012Z,11.32
2023-05-18T22:20:28.348Z,11.21
2023-05-18T22:25:32.403Z,11.09
2023-05-18T22:30:35.453Z,10.98
2023-05-18T22:35:39.750Z,10.95
2023-05-18T22:40:42.567Z,10.66
2023-05-18T22:45:45.455Z,10.59
2023-05-18T22:50:49.748Z,10.53
2023-05-18T22:55:52.798Z,10.50
2023-05-18T23:00:56.056Z,10.45
2023-05-18T23:06:02.982Z,10.37
2023-05-18T23:11:06.042Z,10.31
2023-05-18T23:16:10.486Z,10.43
2023-05-18T23:21:14.892Z,10.38
2023-05-18T23:26:17.914Z,10.30
2023-05-18T23:31:22.008Z,10.12
2023-05-18T23:36:30.401Z,10.10
2023-05-18T23:41:35.241Z,10.11
2023-05-18T23:46:38.776Z,9.95
2023-05-18T23:51:44.325Z,9.73
2023-05-18T23:56:48.111Z,9.43
